UNKL Airport Information

Runway Information
Runway 11 Length 12150 ft width 197 ft
Elevation 942 ft Threshold 0 ft Heading 113
Runway 29 Length 12150 ft Width 197 ft
Elevation 942 ft Threshold 0 ft Heading 293
Airport Frequencies
Type APP Name KRASNOYARS Frequency 127.7 MHZ
Type TWR Name KRASNOYARS Frequency 118.3 MHZ
Type TWR Name KRASNOYARS Frequency 121.9 MHZ
Airport Navaids
Type NDB Name Krasnoyarsk Frequency 334 KHZ
Type NDB Name Staritsa Frequency 430 KHZ
Type NDB Name Krasnoyarsk Frequency 334 KHZ
Type VOR-DME Name Krasnoyarsk Frequency 113200 KHZ
Airport Weather Information & NOTAM
ADDS - METARS form results

(1510 UTC 04 April 2020)
Data provider http://aviationweather.gov/metar/data/
 
METAR text: UNKL 041500Z 00000MPS CAVOK M02/M08 Q1035 R29/CLRD65 NOSIG RMK QFE750
Conditions at: UNKL (KRASNOYARSK , RU) observed 1500 UTC 04 April 2020
Temperature: -2.0°C (28°F)
Dewpoint: -8.0°C (18°F) [RH = 63%]
Pressure (altimeter): 30.56 inches Hg (1035.0 mb)
Winds: calm
Visibility: 6 or more miles (10+ km)
Ceiling: ceiling and visibility are OK
Clouds: unknown
Weather: no significant weather observed at this time

METAR text: UNKL 041430Z 26001MPS CAVOK M01/M07 Q1035 R29/CLRD65 NOSIG RMK QFE750
Conditions at: UNKL (KRASNOYARSK , RU) observed 1430 UTC 04 April 2020
Temperature: -1.0°C (30°F)
Dewpoint: -7.0°C (19°F) [RH = 64%]
Pressure (altimeter): 30.56 inches Hg (1035.0 mb)
Winds: from the W (260 degrees) at 2 MPH (2 knots; 1.0 m/s)
Visibility: 6 or more miles (10+ km)
Ceiling: ceiling and visibility are OK
Clouds: unknown
Weather: no significant weather observed at this time

Forecast for: UNKL (KRASNOYARSK , RU)
Text: TAF UNKL 041358Z 0415/0515 04003G08MPS CAVOK
Forecast period: 1500 to 1900 UTC 04 April 2020
Forecast type: FROM: standard forecast or significant change
Winds: from the NE (40 degrees) at 7 MPH (6 knots; 3.1 m/s)
gusting to 18 MPH (16 knots; 8.2 m/s)
Visibility: 6 or more miles 10+ km)
Ceiling: unknown
Clouds: missing
Weather: NSW  (no significant weather)
Text: FM041900 VRB01MPS 6000 SCT030
Forecast period: 1900 UTC 04 April 2020 to 0300 UTC 05 April 2020
Forecast type: FROM: standard forecast or significant change
Winds: variable direction winds at 2 MPH (2 knots; 1.0 m/s)
Visibility: 4 miles (6 km)
Ceiling: at least 12,000 feet AGL
Clouds: scattered clouds at 3000 feet AGL
Weather: no significant weather forecast for this period
Text: FM050300 11003G10MPS CAVOK
Forecast period: 0300 to 1500 UTC 05 April 2020
Forecast type: FROM: standard forecast or significant change
Winds: from the ESE (110 degrees) at 7 MPH (6 knots; 3.1 m/s)
gusting to 22 MPH (19 knots; 9.8 m/s)
Visibility: 6 or more miles 10+ km)
Ceiling: unknown
Clouds: missing
Weather: NSW  (no significant weather)